Terminal Aerodrome Forecast
Issued by NWS

Home | Current Version | Previous Version | Text Only | Print | Product List | Glossary On
Versions: 1 2 3 4 5 6 7 8 9 10 11 12
678
FTUS44 KSJT 051725
TAFBBD
TAF
KBBD 051725Z 0518/0618 03004KT 5SM -RA BR OVC015
      TEMPO 0518/0521 3SM -RA BR OVC008
     FM052300 25003KT P6SM BKN060
     FM060300 27006KT P6SM SCT100
     FM061600 33012KT P6SM SCT025
      AMD NOT SKED=

USA.gov is the U.S. government's official web portal to all federal, state and local government web resources and services.